createdAt,value
2022-12-13T00:01:32.115Z,142.70968
2022-12-13T00:06:33.864Z,144
2022-12-13T00:11:35.723Z,142.70968
2022-12-13T00:16:37.711Z,140.80511
2022-12-13T00:21:39.561Z,139.55556
2022-12-13T00:26:41.478Z,132.95706
2022-12-13T00:32:00.540Z,131.23404
2022-12-13T00:37:03.673Z,127.8806
2022-12-13T00:49:15.898Z,133.53846
2022-12-13T00:54:17.954Z,132.3792
2022-12-13T00:59:19.693Z,130.66667
2022-12-13T01:04:21.431Z,128.43114
2022-12-13T01:09:23.998Z,128.98498
2022-12-13T01:14:25.523Z,130.66667
2022-12-13T01:19:27.049Z,127.33333
2022-12-13T01:24:28.599Z,129.54217
2022-12-13T01:29:30.120Z,120.5043
2022-12-13T01:34:31.704Z,110.93767
2022-12-13T01:39:38.076Z,108.70588
2022-12-13T01:44:40.062Z,112.30601
2022-12-13T01:49:41.561Z,109.5914
2022-12-13T01:54:46.659Z,108.70588
2022-12-13T01:59:48.794Z,107.82979
2022-12-13T02:04:50.428Z,109.5914
2022-12-13T02:09:56.794Z,109.5914
2022-12-13T02:15:00.601Z,110.03774
2022-12-13T02:20:02.786Z,111.3913
2022-12-13T02:25:04.737Z,114.16575
2022-12-13T02:30:06.748Z,114.16575
2022-12-13T02:35:08.515Z,112.76712
2022-12-13T02:40:10.450Z,114.16575
2022-12-13T02:45:18.651Z,112.30601
2022-12-13T02:50:22.793Z,113.23077
2022-12-13T02:55:28.110Z,115.58774
2022-12-13T03:00:30.268Z,119
2022-12-13T03:05:31.752Z,119
2022-12-13T03:10:33.468Z,123.59184
2022-12-13T03:15:35.058Z,121.52161
2022-12-13T03:20:36.502Z,120.5043
2022-12-13T03:25:38.276Z,120
2022-12-13T03:30:39.775Z,119.49858
2022-12-13T03:35:44.467Z,115.58774
2022-12-13T03:40:47.340Z,111.84741
2022-12-13T03:45:49.208Z,109.14745
2022-12-13T03:50:51.039Z,113.69697
2022-12-13T03:55:52.749Z,110.48649
2022-12-13T04:00:54.519Z,108.70588
2022-12-13T04:05:56.358Z,109.5914
2022-12-13T04:10:58.461Z,108.26667
2022-12-13T04:16:00.444Z,107.39523
2022-12-13T04:21:02.567Z,105.67979
2022-12-13T04:26:04.360Z,104
2022-12-13T04:31:06.330Z,102.76289
2022-12-13T04:36:08.671Z,101.14286
2022-12-13T04:41:10.790Z,101.94872
2022-12-13T04:46:13.222Z,101.94872
2022-12-13T04:51:15.279Z,101.14286
2022-12-13T04:56:17.217Z,98
2022-12-13T05:01:19.796Z,98.38596
2022-12-13T05:06:27.182Z,99.16373
2022-12-13T05:11:35.535Z,81.80761
2022-12-13T05:16:37.684Z,97.23383
2022-12-13T05:21:39.213Z,101.54476
2022-12-13T05:26:40.738Z,103.17313
2022-12-13T05:31:42.406Z,103.17313
2022-12-13T05:36:43.883Z,99.55556
2022-12-13T05:41:45.783Z,96.8536
2022-12-13T05:46:47.276Z,95.35135
2022-12-13T05:51:48.911Z,100.34518
2022-12-13T05:56:50.559Z,109.5914
2022-12-13T06:01:52.196Z,111.84741
2022-12-13T06:06:53.728Z,111.84741
2022-12-13T06:12:00.750Z,112.76712
2022-12-13T06:17:03.134Z,128.43114
2022-12-13T06:22:04.692Z,129.54217
2022-12-13T06:27:06.294Z,133.53846
2022-12-13T06:32:07.735Z,135.30435
2022-12-13T06:37:09.236Z,131.80488
2022-12-13T06:42:11.045Z,130.10272
2022-12-13T06:47:12.941Z,132.95706
2022-12-13T06:52:34.146Z,141.4359
2022-12-13T06:57:36.035Z,127.8806
2022-12-13T07:02:38.312Z,138.93671
2022-12-13T07:07:40.873Z,127.8806
2022-12-13T07:12:42.987Z,121.52161
2022-12-13T07:17:45.018Z,138.32177
2022-12-13T07:22:48.483Z,132.95706
2022-12-13T07:27:51.396Z,146.63158
2022-12-13T07:32:53.201Z,144
2022-12-13T07:37:55.074Z,163.21708
2022-12-13T07:42:59.553Z,147.97351
2022-12-13T07:48:01.456Z,154.9589
2022-12-13T07:53:03.250Z,145.30719
2022-12-13T07:58:05.050Z,161.66784
2022-12-13T08:03:06.843Z,132.3792
2022-12-13T08:08:08.720Z,163.21708
2022-12-13T08:13:10.780Z,159.38462
2022-12-13T08:18:12.558Z,146.63158
2022-12-13T08:23:14.463Z,144
2022-12-13T08:28:16.347Z,166.38267
2022-12-13T08:33:18.677Z,174.71161
2022-12-13T08:38:22.741Z,177.33333
2022-12-13T08:43:25.490Z,158.63415
2022-12-13T08:48:27.215Z,160.14035
2022-12-13T08:53:31.760Z,155.68385
2022-12-13T08:58:42.390Z,200.66667
2022-12-13T09:03:43.871Z,195.42857
2022-12-13T09:08:45.366Z,224
2022-12-13T09:13:54.080Z,221.47748
2022-12-13T09:19:06.541Z,224
2022-12-13T09:24:27.118Z,250.46766
2022-12-13T09:29:28.624Z,244.4878
2022-12-13T09:34:30.170Z,227.87097
2022-12-13T09:39:31.664Z,264.83333
2022-12-13T09:44:43.948Z,278.78261
2022-12-13T09:49:52.724Z,259.89744
2022-12-13T09:54:55.252Z,234.56604
2022-12-13T10:00:00.031Z,252
2022-12-13T10:05:03.657Z,258.28571
2022-12-13T10:10:05.325Z,255.11111
2022-12-13T10:15:07.661Z,284.33149
2022-12-13T10:20:09.156Z,282.46154
2022-12-13T10:25:10.659Z,198.54545
2022-12-13T10:30:12.167Z,321.91411
2022-12-13T10:35:13.628Z,310.66667
2022-12-13T10:40:15.112Z,276.97297
2022-12-13T10:45:34.480Z,333.87342
2022-12-13T10:50:36.241Z,436.8
2022-12-13T10:55:37.788Z,393.63504
2022-12-13T11:00:39.778Z,417.84615
2022-12-13T11:05:41.592Z,380.87943
2022-12-13T11:10:43.431Z,547.92157
2022-12-13T11:15:45.317Z,436.8
2022-12-13T11:20:54.075Z,937.54839
2022-12-13T11:25:56.056Z,937.54839
2022-12-13T11:30:57.868Z,824
2022-12-13T11:36:03.463Z,525.13208
2022-12-13T11:41:05.525Z,613.56522
2022-12-13T11:46:07.609Z,660.27907
2022-12-13T11:51:09.296Z,811.60563
2022-12-13T11:56:11.318Z,1006.06897
2022-12-13T12:01:13.359Z,953.83607
2022-12-13T12:06:15.235Z,863.40299
2022-12-13T12:11:17.052Z,921.77778
2022-12-13T12:16:19.131Z,891.69231
2022-12-13T12:21:20.988Z,988.0678
2022-12-13T12:26:22.902Z,970.66667
2022-12-13T12:31:24.771Z,744
2022-12-13T12:36:26.673Z,723.74684
2022-12-13T12:41:28.272Z,714
2022-12-13T12:46:31.194Z,677.33333
2022-12-13T12:51:33.010Z,628.44444
2022-12-13T12:56:34.656Z,636.13483
2022-12-13T13:01:43.545Z,484.35088
2022-12-13T13:06:46.251Z,585.66667
2022-12-13T13:11:50.912Z,836.75362
2022-12-13T13:16:59.453Z,466.0339
2022-12-13T13:22:02.549Z,613.56522
2022-12-13T13:27:04.489Z,660.27907
2022-12-13T13:32:06.585Z,695.21951
2022-12-13T13:37:08.366Z,723.74684
2022-12-13T13:42:10.163Z,644
2022-12-13T13:47:12.985Z,519.70093
2022-12-13T13:52:26.491Z,744
2022-12-13T13:57:45.547Z,599.31915
2022-12-13T14:03:22.351Z,704.49383
2022-12-13T14:08:30.942Z,644
2022-12-13T14:13:32.389Z,686.16867
2022-12-13T14:18:34.246Z,644
2022-12-13T14:23:35.777Z,585.66667
2022-12-13T14:28:37.365Z,579.05155
2022-12-13T14:33:38.889Z,547.92157
2022-12-13T14:38:49.464Z,547.92157
2022-12-13T14:43:51.264Z,470.49573
2022-12-13T14:48:53.512Z,414.22901
2022-12-13T14:53:55.470Z,387.16547
2022-12-13T14:58:57.513Z,380.87943
2022-12-13T15:03:59.701Z,417.84615
2022-12-13T15:09:02.603Z,333.87342
2022-12-13T15:14:07.146Z,319.60976
2022-12-13T15:19:13.296Z,258.28571
2022-12-13T15:24:31.664Z,235.94313
2022-12-13T15:29:33.160Z,255.11111
2022-12-13T15:34:34.680Z,241.58454
2022-12-13T15:39:36.178Z,153.52381
2022-12-13T15:44:37.741Z,190.4
2022-12-13T15:49:40.191Z,186.51969
2022-12-13T15:54:42.089Z,226.56881
2022-12-13T15:59:43.913Z,255.11111
2022-12-13T16:04:45.750Z,288.13408
2022-12-13T16:09:47.559Z,271.65957
2022-12-13T16:14:50.123Z,250.46766
2022-12-13T16:19:52.446Z,248.9505
2022-12-13T16:24:54.412Z,248.9505
2022-12-13T16:29:56.176Z,247.44828
2022-12-13T16:34:57.964Z,227.87097
2022-12-13T16:39:59.890Z,235.94313
2022-12-13T16:45:32.778Z,243.02913
2022-12-13T16:50:42.108Z,230.51163
2022-12-13T16:55:43.583Z,238.73684
2022-12-13T17:00:59.993Z,187.47826
2022-12-13T17:06:01.958Z,196.45902
2022-12-13T17:11:06.039Z,171.30627
2022-12-13T17:16:08.267Z,180.92308
2022-12-13T17:21:09.945Z,141.4359
2022-12-13T17:26:11.408Z,159.38462
2022-12-13T17:31:12.998Z,158.63415
2022-12-13T17:36:14.527Z,168.81752
2022-12-13T17:41:16.088Z,164.78853
2022-12-13T17:46:17.581Z,186.51969
2022-12-13T17:51:19.356Z,203.91561
2022-12-13T17:56:20.901Z,201.74059
2022-12-13T18:01:22.653Z,195.42857
2022-12-13T18:06:24.614Z,202.82353
2022-12-13T18:11:34.372Z,203.91561
2022-12-13T18:16:38.397Z,201.74059
2022-12-13T18:21:40.942Z,180.92308
2022-12-13T18:26:42.397Z,166.38267
2022-12-13T18:31:44.440Z,163.21708
2022-12-13T18:36:46.016Z,174.71161
2022-12-13T18:41:47.522Z,158.63415
2022-12-13T18:46:49.113Z,176.45283
2022-12-13T18:51:51.044Z,162.43972
2022-12-13T18:56:52.457Z,164.78853
2022-12-13T19:01:54.165Z,164
2022-12-13T19:06:55.812Z,156.41379
2022-12-13T19:12:18.944Z,164.78853
2022-12-13T19:17:20.881Z,168.81752
2022-12-13T19:22:23.620Z,163.21708
2022-12-13T19:27:25.646Z,166.38267
2022-12-13T19:32:27.583Z,181.83784
2022-12-13T19:37:29.232Z,167.18841
2022-12-13T19:42:30.718Z,177.33333
2022-12-13T19:47:32.213Z,180.01533
2022-12-13T19:52:33.984Z,160.90141
2022-12-13T19:57:38.029Z,190.4
2022-12-13T20:02:39.562Z,189.41833
2022-12-13T20:07:41.052Z,188.44444
2022-12-13T20:12:42.718Z,180.01533
2022-12-13T20:17:44.266Z,163.21708
2022-12-13T20:22:48.373Z,168
2022-12-13T20:27:59.327Z,164.78853
2022-12-13T20:33:03.557Z,164
2022-12-13T20:38:05.042Z,149.33333
2022-12-13T20:43:07.054Z,149.33333
2022-12-13T20:55:22.375Z,152.81356
2022-12-13T21:00:24.445Z,154.9589
2022-12-13T21:05:26.194Z,145.96721
2022-12-13T21:10:28.185Z,143.35275
2022-12-13T21:15:29.713Z,147.30033
2022-12-13T21:20:31.412Z,145.96721
2022-12-13T21:25:33.111Z,145.96721
2022-12-13T21:30:35.194Z,136.5
2022-12-13T21:35:36.650Z,131.80488
2022-12-13T21:40:38.419Z,143.35275
2022-12-13T21:45:40.212Z,140.80511
2022-12-13T21:50:41.965Z,135.30435
2022-12-13T21:55:44.019Z,144
2022-12-13T22:00:49.901Z,147.30033
2022-12-13T22:05:51.722Z,147.97351
2022-12-13T22:10:53.727Z,135.30435
2022-12-13T22:15:55.476Z,130.10272
2022-12-13T22:20:57.179Z,129.54217
2022-12-13T22:25:59.254Z,125.71091
2022-12-13T22:31:00.879Z,120
2022-12-13T22:36:02.561Z,119.49858
2022-12-13T22:41:04.518Z,122.55072
2022-12-13T22:46:06.341Z,119.49858
2022-12-13T22:51:08.250Z,116.54902
2022-12-13T22:56:10.348Z,117.52113
2022-12-13T23:01:12.404Z,113.23077
2022-12-13T23:06:14.413Z,110.48649
2022-12-13T23:11:16.467Z,109.5914
2022-12-13T23:16:18.441Z,109.14745
2022-12-13T23:21:20.229Z,108.26667
2022-12-13T23:26:22.675Z,110.48649
2022-12-13T23:31:24.482Z,109.14745
2022-12-13T23:36:26.253Z,107.82979
2022-12-13T23:41:33.330Z,108.70588
2022-12-13T23:46:35.419Z,106.96296
2022-12-13T23:51:36.954Z,105.25654
2022-12-13T23:56:38.815Z,101.94872
